sensor_id;sensor_type;location;lat;lon;timestamp;pressure;altitude;pressure_sealevel;temperature;humidity
77572;BME280;67214;47.454;18.966;2023-05-07T00:02:01;100220.83;;;13.67;86.76
77572;BME280;67214;47.454;18.966;2023-05-07T00:04:30;100215.08;;;13.72;86.54
77572;BME280;67214;47.454;18.966;2023-05-07T00:06:59;100214.84;;;13.79;86.09
77572;BME280;67214;47.454;18.966;2023-05-07T00:09:26;100217.25;;;13.72;86.09
77572;BME280;67214;47.454;18.966;2023-05-07T00:11:54;100222.88;;;13.69;86.38
77572;BME280;67214;47.454;18.966;2023-05-07T00:14:21;100229.61;;;13.64;86.49
77572;BME280;67214;47.454;18.966;2023-05-07T00:16:48;100234.88;;;13.69;86.17
77572;BME280;67214;47.454;18.966;2023-05-07T00:19:16;100225.67;;;13.68;85.80
77572;BME280;67214;47.454;18.966;2023-05-07T00:21:43;100228.40;;;13.62;86.05
77572;BME280;67214;47.454;18.966;2023-05-07T00:24:11;100217.83;;;13.57;86.15
77572;BME280;67214;47.454;18.966;2023-05-07T00:26:39;100216.50;;;13.57;86.21
77572;BME280;67214;47.454;18.966;2023-05-07T00:29:06;100230.80;;;13.56;86.18
77572;BME280;67214;47.454;18.966;2023-05-07T00:31:33;100231.70;;;13.50;85.69
77572;BME280;67214;47.454;18.966;2023-05-07T00:34:01;100227.91;;;13.53;85.34
77572;BME280;67214;47.454;18.966;2023-05-07T00:36:29;100231.91;;;13.53;85.58
77572;BME280;67214;47.454;18.966;2023-05-07T00:38:59;100238.66;;;13.47;85.88
77572;BME280;67214;47.454;18.966;2023-05-07T00:41:26;100227.56;;;13.42;86.02
77572;BME280;67214;47.454;18.966;2023-05-07T00:43:54;100231.36;;;13.40;85.98
77572;BME280;67214;47.454;18.966;2023-05-07T00:46:21;100234.08;;;13.34;86.15
77572;BME280;67214;47.454;18.966;2023-05-07T00:48:53;100230.50;;;13.30;86.02
77572;BME280;67214;47.454;18.966;2023-05-07T00:51:22;100224.25;;;13.25;86.03
77572;BME280;67214;47.454;18.966;2023-05-07T00:53:50;100234.98;;;13.20;86.10
77572;BME280;67214;47.454;18.966;2023-05-07T00:56:18;100234.07;;;13.15;86.24
77572;BME280;67214;47.454;18.966;2023-05-07T00:58:47;100232.25;;;13.16;86.09
77572;BME280;67214;47.454;18.966;2023-05-07T01:01:14;100228.52;;;13.13;86.17
77572;BME280;67214;47.454;18.966;2023-05-07T01:03:45;100234.58;;;13.09;86.12
77572;BME280;67214;47.454;18.966;2023-05-07T01:06:13;100228.69;;;13.05;86.10
77572;BME280;67214;47.454;18.966;2023-05-07T01:08:43;100235.83;;;12.95;86.33
77572;BME280;67214;47.454;18.966;2023-05-07T01:11:11;100218.16;;;12.94;86.28
77572;BME280;67214;47.454;18.966;2023-05-07T01:13:39;100226.72;;;12.98;86.09
77572;BME280;67214;47.454;18.966;2023-05-07T01:16:09;100226.63;;;12.94;86.05
77572;BME280;67214;47.454;18.966;2023-05-07T01:18:37;100231.95;;;12.94;86.04
77572;BME280;67214;47.454;18.966;2023-05-07T01:21:05;100231.59;;;12.93;86.12
77572;BME280;67214;47.454;18.966;2023-05-07T01:23:34;100239.59;;;12.93;86.28
77572;BME280;67214;47.454;18.966;2023-05-07T01:26:02;100233.90;;;12.92;86.33
77572;BME280;67214;47.454;18.966;2023-05-07T01:28:29;100238.89;;;12.91;86.37
77572;BME280;67214;47.454;18.966;2023-05-07T01:31:00;100240.99;;;12.87;86.37
77572;BME280;67214;47.454;18.966;2023-05-07T01:33:31;100236.41;;;12.84;86.44
77572;BME280;67214;47.454;18.966;2023-05-07T01:36:00;100232.69;;;12.81;86.59
77572;BME280;67214;47.454;18.966;2023-05-07T01:38:30;100242.89;;;12.76;86.56
77572;BME280;67214;47.454;18.966;2023-05-07T01:40:58;100238.48;;;12.71;86.90
77572;BME280;67214;47.454;18.966;2023-05-07T01:43:26;100239.54;;;12.74;86.67
77572;BME280;67214;47.454;18.966;2023-05-07T01:45:56;100230.50;;;12.71;86.74
77572;BME280;67214;47.454;18.966;2023-05-07T01:48:25;100239.86;;;12.65;86.72
77572;BME280;67214;47.454;18.966;2023-05-07T01:50:53;100239.89;;;12.59;87.03
77572;BME280;67214;47.454;18.966;2023-05-07T01:53:21;100234.84;;;12.56;86.96
77572;BME280;67214;47.454;18.966;2023-05-07T01:55:49;100240.17;;;12.56;86.99
77572;BME280;67214;47.454;18.966;2023-05-07T01:58:16;100230.29;;;12.53;86.73
77572;BME280;67214;47.454;18.966;2023-05-07T02:00:44;100222.34;;;12.47;86.83
77572;BME280;67214;47.454;18.966;2023-05-07T02:03:11;100224.71;;;12.41;86.65
77572;BME280;67214;47.454;18.966;2023-05-07T02:05:39;100225.83;;;12.38;86.63
77572;BME280;67214;47.454;18.966;2023-05-07T02:08:06;100227.85;;;12.40;86.25
77572;BME280;67214;47.454;18.966;2023-05-07T02:10:33;100223.29;;;12.37;86.37
77572;BME280;67214;47.454;18.966;2023-05-07T02:13:02;100224.17;;;12.32;86.37
77572;BME280;67214;47.454;18.966;2023-05-07T02:15:29;100226.53;;;12.25;86.42
77572;BME280;67214;47.454;18.966;2023-05-07T02:18:04;100229.58;;;12.21;86.62
77572;BME280;67214;47.454;18.966;2023-05-07T02:20:32;100226.63;;;12.14;86.68
77572;BME280;67214;47.454;18.966;2023-05-07T02:23:00;100223.98;;;12.08;86.71
77572;BME280;67214;47.454;18.966;2023-05-07T02:25:28;100218.58;;;12.04;86.81
77572;BME280;67214;47.454;18.966;2023-05-07T02:27:56;100220.18;;;12.01;86.77
77572;BME280;67214;47.454;18.966;2023-05-07T02:30:24;100220.57;;;11.97;86.93
77572;BME280;67214;47.454;18.966;2023-05-07T02:32:52;100206.55;;;11.95;86.89
77572;BME280;67214;47.454;18.966;2023-05-07T02:35:19;100215.42;;;11.90;86.79
77572;BME280;67214;47.454;18.966;2023-05-07T02:37:46;100211.95;;;11.84;86.81
77572;BME280;67214;47.454;18.966;2023-05-07T02:40:14;100207.98;;;11.78;86.91
77572;BME280;67214;47.454;18.966;2023-05-07T02:42:41;100210.52;;;11.80;87.00
77572;BME280;67214;47.454;18.966;2023-05-07T02:45:10;100206.75;;;11.82;86.62
77572;BME280;67214;47.454;18.966;2023-05-07T02:47:37;100201.39;;;11.73;86.39
77572;BME280;67214;47.454;18.966;2023-05-07T02:50:06;100212.85;;;11.68;86.69
77572;BME280;67214;47.454;18.966;2023-05-07T02:52:34;100213.23;;;11.63;86.70
77572;BME280;67214;47.454;18.966;2023-05-07T02:55:01;100215.11;;;11.51;86.78
77572;BME280;67214;47.454;18.966;2023-05-07T02:57:29;100211.72;;;11.49;86.66
77572;BME280;67214;47.454;18.966;2023-05-07T02:59:58;100217.08;;;11.44;86.42
77572;BME280;67214;47.454;18.966;2023-05-07T03:02:25;100208.59;;;11.50;86.11
77572;BME280;67214;47.454;18.966;2023-05-07T03:04:53;100217.56;;;11.43;86.40
77572;BME280;67214;47.454;18.966;2023-05-07T03:07:20;100215.38;;;11.48;86.29
77572;BME280;67214;47.454;18.966;2023-05-07T03:09:48;100216.22;;;11.49;86.43
77572;BME280;67214;47.454;18.966;2023-05-07T03:12:15;100217.50;;;11.54;86.52
77572;BME280;67214;47.454;18.966;2023-05-07T03:14:42;100207.61;;;11.56;86.68
77572;BME280;67214;47.454;18.966;2023-05-07T03:17:10;100219.66;;;11.60;86.87
77572;BME280;67214;47.454;18.966;2023-05-07T03:19:39;100222.78;;;11.65;86.87
77572;BME280;67214;47.454;18.966;2023-05-07T03:22:06;100220.13;;;11.65;86.77
77572;BME280;67214;47.454;18.966;2023-05-07T03:24:34;100215.24;;;11.71;86.63
77572;BME280;67214;47.454;18.966;2023-05-07T03:27:01;100214.18;;;11.68;86.17
77572;BME280;67214;47.454;18.966;2023-05-07T03:29:29;100212.02;;;11.73;85.93
77572;BME280;67214;47.454;18.966;2023-05-07T03:31:56;100215.52;;;11.73;85.81
77572;BME280;67214;47.454;18.966;2023-05-07T03:34:23;100210.56;;;11.69;86.21
77572;BME280;67214;47.454;18.966;2023-05-07T03:36:51;100215.64;;;11.72;86.01
77572;BME280;67214;47.454;18.966;2023-05-07T03:39:19;100212.59;;;11.71;86.08
77572;BME280;67214;47.454;18.966;2023-05-07T03:41:46;100214.55;;;11.69;86.15
77572;BME280;67214;47.454;18.966;2023-05-07T03:44:13;100217.80;;;11.66;86.33
77572;BME280;67214;47.454;18.966;2023-05-07T03:46:41;100227.25;;;11.65;86.48
77572;BME280;67214;47.454;18.966;2023-05-07T03:49:09;100227.73;;;11.64;86.61
77572;BME280;67214;47.454;18.966;2023-05-07T03:51:36;100233.89;;;11.65;86.64
77572;BME280;67214;47.454;18.966;2023-05-07T03:54:04;100227.25;;;11.65;86.62
77572;BME280;67214;47.454;18.966;2023-05-07T03:56:31;100230.75;;;11.65;86.60
77572;BME280;67214;47.454;18.966;2023-05-07T03:59:00;100223.11;;;11.66;86.58
77572;BME280;67214;47.454;18.966;2023-05-07T04:01:28;100233.14;;;11.69;86.48
77572;BME280;67214;47.454;18.966;2023-05-07T04:03:55;100237.74;;;11.72;86.35
77572;BME280;67214;47.454;18.966;2023-05-07T04:06:23;100231.08;;;11.78;85.90
77572;BME280;67214;47.454;18.966;2023-05-07T04:08:51;100235.16;;;11.82;85.79
77572;BME280;67214;47.454;18.966;2023-05-07T04:11:18;100227.63;;;11.87;85.50
77572;BME280;67214;47.454;18.966;2023-05-07T04:13:46;100218.99;;;11.94;85.09
77572;BME280;67214;47.454;18.966;2023-05-07T04:16:14;100229.77;;;11.93;84.64
77572;BME280;67214;47.454;18.966;2023-05-07T04:18:41;100233.66;;;11.89;84.35
77572;BME280;67214;47.454;18.966;2023-05-07T04:21:16;100238.59;;;11.93;84.37
77572;BME280;67214;47.454;18.966;2023-05-07T04:23:45;100241.25;;;11.93;84.50
77572;BME280;67214;47.454;18.966;2023-05-07T04:26:12;100243.86;;;11.99;84.61
77572;BME280;67214;47.454;18.966;2023-05-07T04:28:40;100244.20;;;12.05;84.51
77572;BME280;67214;47.454;18.966;2023-05-07T04:31:07;100244.14;;;12.11;84.47
77572;BME280;67214;47.454;18.966;2023-05-07T04:33:35;100240.13;;;12.17;84.46
77572;BME280;67214;47.454;18.966;2023-05-07T04:36:03;100252.64;;;12.26;84.40
77572;BME280;67214;47.454;18.966;2023-05-07T04:38:31;100257.66;;;12.34;84.25
77572;BME280;67214;47.454;18.966;2023-05-07T04:41:03;100260.10;;;12.47;84.29
77572;BME280;67214;47.454;18.966;2023-05-07T04:43:31;100251.17;;;12.57;83.53
77572;BME280;67214;47.454;18.966;2023-05-07T04:45:59;100258.05;;;12.75;83.10
77572;BME280;67214;47.454;18.966;2023-05-07T04:48:26;100259.62;;;12.87;83.07
77572;BME280;67214;47.454;18.966;2023-05-07T04:50:55;100261.28;;;13.03;83.00
77572;BME280;67214;47.454;18.966;2023-05-07T04:53:22;100259.16;;;13.22;83.10
77572;BME280;67214;47.454;18.966;2023-05-07T04:55:59;100265.20;;;13.34;82.53
77572;BME280;67214;47.454;18.966;2023-05-07T04:58:24;100262.69;;;13.42;81.96
77572;BME280;67214;47.454;18.966;2023-05-07T05:00:51;100259.39;;;13.54;81.77
77572;BME280;67214;47.454;18.966;2023-05-07T05:03:19;100261.09;;;13.64;81.67
77572;BME280;67214;47.454;18.966;2023-05-07T05:05:46;100258.77;;;13.75;80.96
77572;BME280;67214;47.454;18.966;2023-05-07T05:08:15;100262.97;;;13.87;80.88
77572;BME280;67214;47.454;18.966;2023-05-07T05:10:43;100253.14;;;13.97;79.72
77572;BME280;67214;47.454;18.966;2023-05-07T05:13:10;100257.59;;;14.16;78.73
77572;BME280;67214;47.454;18.966;2023-05-07T05:15:39;100252.02;;;14.42;79.56
77572;BME280;67214;47.454;18.966;2023-05-07T05:18:06;100253.45;;;14.64;78.21
77572;BME280;67214;47.454;18.966;2023-05-07T05:20:34;100250.95;;;14.89;77.89
77572;BME280;67214;47.454;18.966;2023-05-07T05:23:01;100255.95;;;15.02;77.53
77572;BME280;67214;47.454;18.966;2023-05-07T05:25:29;100249.05;;;15.27;77.63
77572;BME280;67214;47.454;18.966;2023-05-07T05:27:56;100247.41;;;15.48;77.56
77572;BME280;67214;47.454;18.966;2023-05-07T05:30:24;100251.12;;;15.64;77.41
77572;BME280;67214;47.454;18.966;2023-05-07T05:32:51;100253.55;;;15.75;75.73
77572;BME280;67214;47.454;18.966;2023-05-07T05:35:19;100252.42;;;15.82;75.18
77572;BME280;67214;47.454;18.966;2023-05-07T05:37:47;100249.71;;;15.78;75.07
77572;BME280;67214;47.454;18.966;2023-05-07T05:40:14;100244.39;;;15.82;75.53
77572;BME280;67214;47.454;18.966;2023-05-07T05:42:41;100251.50;;;15.91;74.90
77572;BME280;67214;47.454;18.966;2023-05-07T05:45:09;100237.52;;;15.97;74.73
77572;BME280;67214;47.454;18.966;2023-05-07T05:47:38;100245.48;;;16.15;74.83
77572;BME280;67214;47.454;18.966;2023-05-07T05:50:06;100249.80;;;16.34;73.90
77572;BME280;67214;47.454;18.966;2023-05-07T05:52:34;100241.84;;;16.46;73.65
77572;BME280;67214;47.454;18.966;2023-05-07T05:55:02;100232.49;;;16.50;73.10
77572;BME280;67214;47.454;18.966;2023-05-07T05:57:30;100232.38;;;16.59;73.88
77572;BME280;67214;47.454;18.966;2023-05-07T05:59:57;100232.45;;;16.76;73.83
77572;BME280;67214;47.454;18.966;2023-05-07T06:02:25;100236.87;;;16.93;73.05
77572;BME280;67214;47.454;18.966;2023-05-07T06:04:53;100230.08;;;17.10;72.31
77572;BME280;67214;47.454;18.966;2023-05-07T06:07:20;100237.30;;;17.18;71.23
77572;BME280;67214;47.454;18.966;2023-05-07T06:09:47;100238.68;;;17.38;71.38
77572;BME280;67214;47.454;18.966;2023-05-07T06:12:15;100241.22;;;17.52;71.38
77572;BME280;67214;47.454;18.966;2023-05-07T06:14:45;100242.27;;;17.63;69.25
77572;BME280;67214;47.454;18.966;2023-05-07T06:17:12;100245.45;;;17.79;68.33
77572;BME280;67214;47.454;18.966;2023-05-07T06:19:40;100239.58;;;17.91;68.26
77572;BME280;67214;47.454;18.966;2023-05-07T06:22:07;100243.25;;;18.02;66.72
77572;BME280;67214;47.454;18.966;2023-05-07T06:24:35;100236.52;;;18.19;66.95
77572;BME280;67214;47.454;18.966;2023-05-07T06:27:02;100239.12;;;18.51;66.25
77572;BME280;67214;47.454;18.966;2023-05-07T06:29:29;100241.73;;;18.83;65.14
77572;BME280;67214;47.454;18.966;2023-05-07T06:32:09;100247.37;;;19.00;63.44
77572;BME280;67214;47.454;18.966;2023-05-07T06:34:38;100243.20;;;18.98;62.33
77572;BME280;67214;47.454;18.966;2023-05-07T06:37:06;100244.98;;;19.10;62.63
77572;BME280;67214;47.454;18.966;2023-05-07T06:39:34;100245.38;;;18.98;62.44
77572;BME280;67214;47.454;18.966;2023-05-07T06:42:01;100243.43;;;19.19;62.62
77572;BME280;67214;47.454;18.966;2023-05-07T06:44:31;100246.28;;;19.48;62.08
77572;BME280;67214;47.454;18.966;2023-05-07T06:46:58;100240.17;;;19.59;61.33
77572;BME280;67214;47.454;18.966;2023-05-07T06:49:26;100248.91;;;19.57;61.48
77572;BME280;67214;47.454;18.966;2023-05-07T06:51:53;100245.89;;;19.60;61.28
77572;BME280;67214;47.454;18.966;2023-05-07T06:54:22;100249.78;;;19.53;60.95
77572;BME280;67214;47.454;18.966;2023-05-07T06:56:50;100250.87;;;19.67;62.26
77572;BME280;67214;47.454;18.966;2023-05-07T06:59:17;100251.75;;;19.82;60.58
77572;BME280;67214;47.454;18.966;2023-05-07T07:01:45;100251.08;;;19.84;60.44
77572;BME280;67214;47.454;18.966;2023-05-07T07:04:13;100252.96;;;19.79;60.21
77572;BME280;67214;47.454;18.966;2023-05-07T07:06:40;100244.95;;;19.71;61.33
77572;BME280;67214;47.454;18.966;2023-05-07T07:09:08;100245.29;;;19.72;62.06
77572;BME280;67214;47.454;18.966;2023-05-07T07:11:35;100252.19;;;19.71;61.62
77572;BME280;67214;47.454;18.966;2023-05-07T07:14:03;100259.28;;;19.68;59.97
77572;BME280;67214;47.454;18.966;2023-05-07T07:16:31;100265.27;;;19.74;61.71
77572;BME280;67214;47.454;18.966;2023-05-07T07:18:58;100268.08;;;19.84;59.38
77572;BME280;67214;47.454;18.966;2023-05-07T07:21:26;100277.09;;;19.91;59.06
77572;BME280;67214;47.454;18.966;2023-05-07T07:23:53;100279.05;;;19.98;58.78
77572;BME280;67214;47.454;18.966;2023-05-07T07:26:21;100275.67;;;20.00;57.92
77572;BME280;67214;47.454;18.966;2023-05-07T07:28:49;100283.95;;;19.94;59.23
77572;BME280;67214;47.454;18.966;2023-05-07T07:31:16;100283.58;;;19.78;58.48
77572;BME280;67214;47.454;18.966;2023-05-07T07:33:44;100288.66;;;19.73;59.44
77572;BME280;67214;47.454;18.966;2023-05-07T07:36:11;100292.70;;;19.73;59.30
77572;BME280;67214;47.454;18.966;2023-05-07T07:38:39;100284.39;;;19.83;57.67
77572;BME280;67214;47.454;18.966;2023-05-07T07:41:08;100291.47;;;20.03;57.44
77572;BME280;67214;47.454;18.966;2023-05-07T07:43:36;100293.14;;;20.04;58.58
77572;BME280;67214;47.454;18.966;2023-05-07T07:46:03;100294.98;;;20.22;58.64
77572;BME280;67214;47.454;18.966;2023-05-07T07:48:31;100291.86;;;20.14;59.19
77572;BME280;67214;47.454;18.966;2023-05-07T07:50:58;100287.08;;;20.43;60.39
77572;BME280;67214;47.454;18.966;2023-05-07T07:53:26;100291.75;;;20.26;60.86
77572;BME280;67214;47.454;18.966;2023-05-07T07:55:54;100295.91;;;19.95;62.96
77572;BME280;67214;47.454;18.966;2023-05-07T07:58:21;100292.30;;;20.03;62.15
77572;BME280;67214;47.454;18.966;2023-05-07T08:00:51;100296.20;;;19.78;62.21
77572;BME280;67214;47.454;18.966;2023-05-07T08:03:18;100294.63;;;19.61;62.03
77572;BME280;67214;47.454;18.966;2023-05-07T08:05:46;100293.58;;;19.39;62.55
77572;BME280;67214;47.454;18.966;2023-05-07T08:08:13;100300.87;;;19.26;62.75
77572;BME280;67214;47.454;18.966;2023-05-07T08:10:40;100298.66;;;19.30;62.81
77572;BME280;67214;47.454;18.966;2023-05-07T08:13:08;100294.42;;;19.43;63.21
77572;BME280;67214;47.454;18.966;2023-05-07T08:15:36;100300.63;;;19.36;63.62
77572;BME280;67214;47.454;18.966;2023-05-07T08:18:03;100293.38;;;19.44;63.42
77572;BME280;67214;47.454;18.966;2023-05-07T08:20:31;100290.48;;;19.19;64.37
77572;BME280;67214;47.454;18.966;2023-05-07T08:22:59;100287.13;;;19.17;66.32
77572;BME280;67214;47.454;18.966;2023-05-07T08:25:27;100284.34;;;19.02;66.58
77572;BME280;67214;47.454;18.966;2023-05-07T08:27:54;100285.70;;;18.98;67.54
77572;BME280;67214;47.454;18.966;2023-05-07T08:30:22;100287.52;;;19.06;67.37
77572;BME280;67214;47.454;18.966;2023-05-07T08:32:49;100287.03;;;19.02;67.87
77572;BME280;67214;47.454;18.966;2023-05-07T08:35:17;100284.87;;;18.94;68.09
77572;BME280;67214;47.454;18.966;2023-05-07T08:37:44;100287.66;;;19.09;68.16
77572;BME280;67214;47.454;18.966;2023-05-07T08:40:12;100293.38;;;19.10;67.04
77572;BME280;67214;47.454;18.966;2023-05-07T08:42:40;100293.50;;;19.16;66.44
77572;BME280;67214;47.454;18.966;2023-05-07T08:45:09;100289.08;;;19.31;65.78
77572;BME280;67214;47.454;18.966;2023-05-07T08:47:46;100301.60;;;19.51;65.84
77572;BME280;67214;47.454;18.966;2023-05-07T08:50:14;100298.83;;;19.86;64.85
77572;BME280;67214;47.454;18.966;2023-05-07T08:52:42;100299.88;;;20.04;64.79
77572;BME280;67214;47.454;18.966;2023-05-07T08:55:09;100291.69;;;19.74;64.67
77572;BME280;67214;47.454;18.966;2023-05-07T08:57:37;100287.42;;;20.03;63.15
77572;BME280;67214;47.454;18.966;2023-05-07T09:00:06;100284.12;;;20.15;62.37
77572;BME280;67214;47.454;18.966;2023-05-07T09:02:36;100300.11;;;20.17;61.21
77572;BME280;67214;47.454;18.966;2023-05-07T09:05:04;100292.13;;;20.42;59.74
77572;BME280;67214;47.454;18.966;2023-05-07T09:07:31;100289.69;;;20.51;61.11
77572;BME280;67214;47.454;18.966;2023-05-07T09:10:03;100291.66;;;20.57;59.90
77572;BME280;67214;47.454;18.966;2023-05-07T09:12:31;100299.32;;;20.79;59.96
77572;BME280;67214;47.454;18.966;2023-05-07T09:15:00;100287.97;;;20.54;58.31
77572;BME280;67214;47.454;18.966;2023-05-07T09:17:29;100295.04;;;20.55;57.85
77572;BME280;67214;47.454;18.966;2023-05-07T09:19:56;100296.42;;;20.51;57.97
77572;BME280;67214;47.454;18.966;2023-05-07T09:22:25;100290.36;;;20.53;56.73
77572;BME280;67214;47.454;18.966;2023-05-07T09:24:53;100279.67;;;21.18;55.56
77572;BME280;67214;47.454;18.966;2023-05-07T09:27:20;100285.63;;;21.39;56.50
77572;BME280;67214;47.454;18.966;2023-05-07T09:29:47;100295.27;;;21.95;55.18
77572;BME280;67214;47.454;18.966;2023-05-07T09:32:15;100290.73;;;21.70;54.62
77572;BME280;67214;47.454;18.966;2023-05-07T09:34:42;100289.58;;;21.90;54.11
77572;BME280;67214;47.454;18.966;2023-05-07T09:37:12;100286.84;;;21.94;53.69
77572;BME280;67214;47.454;18.966;2023-05-07T09:39:49;100280.70;;;21.85;53.95
77572;BME280;67214;47.454;18.966;2023-05-07T09:42:13;100276.12;;;21.43;54.04
77572;BME280;67214;47.454;18.966;2023-05-07T09:44:44;100287.45;;;21.28;56.01
77572;BME280;67214;47.454;18.966;2023-05-07T09:47:12;100287.89;;;21.21;56.40
77572;BME280;67214;47.454;18.966;2023-05-07T09:49:42;100292.23;;;21.07;56.23
77572;BME280;67214;47.454;18.966;2023-05-07T09:52:13;100280.08;;;21.37;55.82
77572;BME280;67214;47.454;18.966;2023-05-07T09:54:40;100277.38;;;20.97;54.67
77572;BME280;67214;47.454;18.966;2023-05-07T09:57:14;100287.84;;;21.10;55.52
77572;BME280;67214;47.454;18.966;2023-05-07T09:59:43;100290.19;;;20.99;55.51
77572;BME280;67214;47.454;18.966;2023-05-07T10:02:13;100289.92;;;21.04;55.12
77572;BME280;67214;47.454;18.966;2023-05-07T10:04:42;100285.38;;;20.75;55.98
77572;BME280;67214;47.454;18.966;2023-05-07T10:07:10;100296.63;;;20.64;54.87
77572;BME280;67214;47.454;18.966;2023-05-07T10:09:38;100292.72;;;20.67;54.53
77572;BME280;67214;47.454;18.966;2023-05-07T10:12:07;100298.06;;;20.71;55.16
77572;BME280;67214;47.454;18.966;2023-05-07T10:14:36;100288.05;;;20.65;56.19
77572;BME280;67214;47.454;18.966;2023-05-07T10:17:04;100300.17;;;20.46;56.47
77572;BME280;67214;47.454;18.966;2023-05-07T10:19:33;100302.22;;;20.25;57.49
77572;BME280;67214;47.454;18.966;2023-05-07T10:22:05;100293.77;;;20.32;56.55
77572;BME280;67214;47.454;18.966;2023-05-07T10:24:33;100301.77;;;20.40;57.67
77572;BME280;67214;47.454;18.966;2023-05-07T10:27:04;100294.62;;;20.48;56.60
77572;BME280;67214;47.454;18.966;2023-05-07T10:29:47;100300.33;;;20.30;56.96
77572;BME280;67214;47.454;18.966;2023-05-07T10:32:33;100294.24;;;20.51;57.77
77572;BME280;67214;47.454;18.966;2023-05-07T10:35:02;100303.66;;;20.36;56.83
77572;BME280;67214;47.454;18.966;2023-05-07T10:37:30;100300.21;;;20.61;57.59
77572;BME280;67214;47.454;18.966;2023-05-07T10:39:58;100299.06;;;20.74;57.39
77572;BME280;67214;47.454;18.966;2023-05-07T10:42:26;100296.48;;;20.91;56.22
77572;BME280;67214;47.454;18.966;2023-05-07T10:44:53;100292.55;;;20.98;55.30
77572;BME280;67214;47.454;18.966;2023-05-07T10:47:21;100296.33;;;21.32;54.46
77572;BME280;67214;47.454;18.966;2023-05-07T10:52:20;100299.67;;;21.60;54.47
77572;BME280;67214;47.454;18.966;2023-05-07T10:57:35;100288.17;;;21.26;50.59
77572;BME280;67214;47.454;18.966;2023-05-07T11:05:32;100283.38;;;22.00;48.96
77572;BME280;67214;47.454;18.966;2023-05-07T11:08:02;100287.55;;;22.02;47.89
77572;BME280;67214;47.454;18.966;2023-05-07T11:10:48;100280.52;;;22.29;46.38
77572;BME280;67214;47.454;18.966;2023-05-07T11:13:17;100280.00;;;22.19;46.24
77572;BME280;67214;47.454;18.966;2023-05-07T11:15:46;100278.25;;;22.50;46.55
77572;BME280;67214;47.454;18.966;2023-05-07T11:18:16;100263.49;;;22.97;44.46
77572;BME280;67214;47.454;18.966;2023-05-07T11:20:57;100269.48;;;23.10;44.86
77572;BME280;67214;47.454;18.966;2023-05-07T11:26:08;100269.52;;;22.99;45.79
77572;BME280;67214;47.454;18.966;2023-05-07T11:28:40;100268.91;;;23.28;45.97
77572;BME280;67214;47.454;18.966;2023-05-07T11:31:08;100273.28;;;23.22;45.61
77572;BME280;67214;47.454;18.966;2023-05-07T11:33:37;100267.55;;;23.45;44.78
77572;BME280;67214;47.454;18.966;2023-05-07T11:36:05;100281.45;;;23.35;44.59
77572;BME280;67214;47.454;18.966;2023-05-07T11:38:38;100269.56;;;23.36;44.21
77572;BME280;67214;47.454;18.966;2023-05-07T11:41:06;100273.95;;;23.37;45.03
77572;BME280;67214;47.454;18.966;2023-05-07T11:43:34;100265.52;;;23.67;44.35
77572;BME280;67214;47.454;18.966;2023-05-07T11:46:09;100267.59;;;23.65;44.19
77572;BME280;67214;47.454;18.966;2023-05-07T11:48:38;100260.84;;;23.78;43.83
77572;BME280;67214;47.454;18.966;2023-05-07T11:51:06;100254.92;;;23.98;42.94
77572;BME280;67214;47.454;18.966;2023-05-07T11:53:41;100262.34;;;24.00;43.62
77572;BME280;67214;47.454;18.966;2023-05-07T11:56:10;100247.11;;;24.38;43.21
77572;BME280;67214;47.454;18.966;2023-05-07T11:58:38;100258.38;;;23.96;42.30
77572;BME280;67214;47.454;18.966;2023-05-07T12:01:08;100252.75;;;24.30;42.56
77572;BME280;67214;47.454;18.966;2023-05-07T12:03:37;100246.82;;;24.18;42.49
77572;BME280;67214;47.454;18.966;2023-05-07T12:06:06;100250.69;;;24.19;41.53
77572;BME280;67214;47.454;18.966;2023-05-07T12:08:39;100245.66;;;24.29;42.01
77572;BME280;67214;47.454;18.966;2023-05-07T12:11:21;100252.83;;;24.46;41.57
77572;BME280;67214;47.454;18.966;2023-05-07T12:13:44;100216.87;;;24.35;42.62
77572;BME280;67214;47.454;18.966;2023-05-07T12:16:12;100236.14;;;24.56;42.36
77572;BME280;67214;47.454;18.966;2023-05-07T12:18:41;100247.25;;;24.76;41.02
77572;BME280;67214;47.454;18.966;2023-05-07T12:21:09;100223.10;;;24.97;39.64
77572;BME280;67214;47.454;18.966;2023-05-07T12:23:37;100223.10;;;24.97;39.64
77572;BME280;67214;47.454;18.966;2023-05-07T12:26:05;100229.70;;;24.79;41.75
77572;BME280;67214;47.454;18.966;2023-05-07T12:28:38;100230.39;;;24.54;42.23
77572;BME280;67214;47.454;18.966;2023-05-07T12:31:06;100245.09;;;25.05;41.49
77572;BME280;67214;47.454;18.966;2023-05-07T12:33:35;100245.09;;;25.05;41.49
77572;BME280;67214;47.454;18.966;2023-05-07T12:36:11;100232.43;;;24.37;43.45
77572;BME280;67214;47.454;18.966;2023-05-07T12:38:38;100219.80;;;24.07;43.60
77572;BME280;67214;47.454;18.966;2023-05-07T12:41:09;100240.05;;;24.18;43.76
77572;BME280;67214;47.454;18.966;2023-05-07T12:43:37;100232.61;;;24.42;43.21
77572;BME280;67214;47.454;18.966;2023-05-07T12:46:06;100209.59;;;24.22;41.69
77572;BME280;67214;47.454;18.966;2023-05-07T12:48:37;100209.59;;;24.22;41.69
77572;BME280;67214;47.454;18.966;2023-05-07T12:51:05;100233.77;;;23.71;42.50
77572;BME280;67214;47.454;18.966;2023-05-07T12:53:39;100238.30;;;23.27;43.79
77572;BME280;67214;47.454;18.966;2023-05-07T12:56:06;100238.22;;;23.55;42.61
77572;BME280;67214;47.454;18.966;2023-05-07T12:58:35;100240.28;;;23.46;44.45
77572;BME280;67214;47.454;18.966;2023-05-07T13:01:07;100238.41;;;23.47;43.13